Time;durP1;ratioP1;P1;durP2;ratioP2;P2;SDS_P1;SDS_P2;PMS_P1;PMS_P2;Temp;Humidity;BMP_temperature;BMP_pressure;BME280_temperature;BME280_humidity;BME280_pressure;Samples;Min_cycle;Max_cycle;Signal;HPM_P1;HPM_P2
2022/08/30 00:03:11;;;;;;;8.05;6.95;;;15.70;99.90;;;;;;5115917;27;20058;-84
2022/08/30 00:05:38;;;;;;;9.98;7.35;;;15.70;99.90;;;;;;5116741;27;20500;-84
2022/08/30 00:08:04;;;;;;;8.85;7.70;;;15.70;99.90;;;;;;5104644;27;20074;-84
2022/08/30 00:10:30;;;;;;;9.20;7.70;;;15.70;99.90;;;;;;5087125;27;20074;-84
2022/08/30 00:12:57;;;;;;;7.95;7.07;;;15.70;99.90;;;;;;5113482;27;20249;-84
2022/08/30 00:15:23;;;;;;;8.25;7.10;;;15.60;99.90;;;;;;5102431;27;20119;-84
2022/08/30 00:17:49;;;;;;;8.23;7.38;;;15.60;99.90;;;;;;5118982;27;20039;-84
2022/08/30 00:20:19;;;;;;;8.10;7.30;;;15.60;99.90;;;;;;5116489;27;20027;-85
2022/08/30 00:22:45;;;;;;;8.60;7.68;;;15.60;99.90;;;;;;5116671;27;20131;-84
2022/08/30 00:25:11;;;;;;;8.23;7.32;;;15.60;99.90;;;;;;5107354;27;20130;-84
2022/08/30 00:27:38;;;;;;;9.40;7.93;;;15.60;99.90;;;;;;5094415;27;20065;-84
2022/08/30 00:30:11;;;;;;;8.55;7.40;;;15.70;99.90;;;;;;5091345;27;20077;-84
2022/08/30 00:32:36;;;;;;;10.02;7.93;;;15.70;99.90;;;;;;5106329;27;20054;-84
2022/08/30 00:35:04;;;;;;;8.95;7.72;;;15.70;99.90;;;;;;5104992;27;20039;-84
2022/08/30 00:37:33;;;;;;;10.05;9.05;;;15.70;99.90;;;;;;5128949;27;20088;-85
2022/08/30 00:39:59;;;;;;;10.65;8.40;;;15.70;99.90;;;;;;5105649;27;20050;-85
2022/08/30 00:42:25;;;;;;;11.27;10.15;;;15.70;99.90;;;;;;5089404;27;20050;-84
2022/08/30 00:44:52;;;;;;;9.98;8.98;;;15.70;99.90;;;;;;5108541;27;20096;-85
2022/08/30 00:47:20;;;;;;;10.25;9.23;;;15.70;99.90;;;;;;5102665;27;20054;-84
2022/08/30 00:49:55;;;;;;;11.40;9.38;;;15.70;99.90;;;;;;5085962;27;20131;-84
2022/08/30 00:52:22;;;;;;;11.80;9.82;;;15.70;99.90;;;;;;5099406;27;20051;-85
2022/08/30 00:54:51;;;;;;;10.50;9.50;;;15.60;99.90;;;;;;5120446;27;20143;-85
2022/08/30 00:57:17;;;;;;;9.20;8.30;;;15.60;99.90;;;;;;5120766;27;20054;-85
2022/08/30 00:59:46;;;;;;;10.80;9.60;;;15.60;99.90;;;;;;5096252;27;20167;-84
2022/08/30 01:02:12;;;;;;;11.33;9.47;;;15.60;99.90;;;;;;5115979;27;20068;-84
2022/08/30 01:04:41;;;;;;;12.23;9.88;;;15.60;99.90;;;;;;5072709;27;20053;-84
2022/08/30 01:07:07;;;;;;;10.55;9.35;;;15.60;99.90;;;;;;5114787;27;20477;-84
2022/08/30 01:09:34;;;;;;;10.70;9.60;;;15.60;99.90;;;;;;5097649;27;20130;-85
2022/08/30 01:12:01;;;;;;;11.38;10.13;;;15.60;99.90;;;;;;5106095;27;20168;-85
2022/08/30 01:14:27;;;;;;;10.23;9.23;;;15.60;99.90;;;;;;5104284;27;20054;-85
2022/08/30 01:16:56;;;;;;;9.77;8.82;;;15.60;99.90;;;;;;5089632;27;20042;-84
2022/08/30 01:19:31;;;;;;;10.88;9.27;;;15.50;99.90;;;;;;5123057;27;20035;-85
2022/08/30 01:22:07;;;;;;;10.55;9.18;;;15.50;99.90;;;;;;5121018;27;20051;-78
2022/08/30 01:24:34;;;;;;;11.32;8.68;;;15.50;99.90;;;;;;5099254;27;20047;-78
2022/08/30 01:27:00;;;;;;;11.27;8.90;;;15.50;99.90;;;;;;5116681;27;20042;-78
2022/08/30 01:29:27;;;;;;;11.65;9.18;;;15.40;99.90;;;;;;5098436;27;20063;-78
2022/08/30 01:31:53;;;;;;;10.07;8.60;;;15.40;99.90;;;;;;5083634;27;20058;-78
2022/08/30 01:34:19;;;;;;;10.35;8.52;;;15.40;99.90;;;;;;5115155;27;20399;-78
2022/08/30 01:36:46;;;;;;;16.02;9.10;;;15.40;99.90;;;;;;5101657;27;20038;-78
2022/08/30 01:39:17;;;;;;;10.65;7.75;;;15.40;99.90;;;;;;5102584;27;20039;-78
2022/08/30 01:41:46;;;;;;;10.48;8.20;;;15.40;99.90;;;;;;5119584;27;20127;-78
2022/08/30 01:44:13;;;;;;;8.63;7.72;;;15.40;99.90;;;;;;5097046;28;20040;-79
2022/08/30 01:46:43;;;;;;;9.45;8.07;;;15.40;99.90;;;;;;5100684;27;20048;-79
2022/08/30 01:49:14;;;;;;;10.32;8.23;;;15.30;99.90;;;;;;5102185;27;20038;-79
2022/08/30 01:51:40;;;;;;;;;;;15.40;99.90;;;;;;5083284;27;20059;-79
2022/08/30 01:54:07;;;;;;;8.65;7.60;;;15.30;99.90;;;;;;5115943;27;20409;-78
2022/08/30 01:56:33;;;;;;;8.68;7.80;;;15.30;99.90;;;;;;5113484;27;20048;-79
2022/08/30 01:58:59;;;;;;;8.48;7.68;;;15.30;99.90;;;;;;5099120;27;20050;-79
2022/08/30 02:01:27;;;;;;;8.77;7.60;;;15.30;99.90;;;;;;5103096;27;20039;-79
2022/08/30 02:03:55;;;;;;;9.80;7.80;;;15.30;99.90;;;;;;5102173;27;20146;-79
2022/08/30 02:06:21;;;;;;;10.35;7.60;;;15.30;99.90;;;;;;5085261;27;20043;-78
2022/08/30 02:08:48;;;;;;;8.27;7.45;;;15.30;99.90;;;;;;5119363;27;20560;-79
2022/08/30 02:11:17;;;;;;;8.80;7.90;;;15.30;99.90;;;;;;5100975;27;20032;-79
2022/08/30 02:13:45;;;;;;;8.73;7.28;;;15.30;99.90;;;;;;5086146;27;20334;-79
2022/08/30 02:16:14;;;;;;;7.97;7.13;;;15.20;99.90;;;;;;5102596;27;20410;-78
2022/08/30 02:18:44;;;;;;;10.38;7.95;;;15.20;99.90;;;;;;5095502;28;20135;-79
2022/08/30 02:21:11;;;;;;;8.70;7.30;;;15.20;99.90;;;;;;5108697;27;20158;-80
2022/08/30 02:23:37;;;;;;;8.90;7.43;;;15.10;99.90;;;;;;5101411;28;20047;-80
2022/08/30 02:26:03;;;;;;;11.50;7.38;;;15.10;99.90;;;;;;5115384;27;20053;-80
2022/08/30 02:28:29;;;;;;;9.20;7.85;;;15.10;99.90;;;;;;5110399;27;20117;-80
2022/08/30 02:30:55;;;;;;;11.05;8.57;;;15.10;99.90;;;;;;5118216;27;20097;-79
2022/08/30 02:33:21;;;;;;;9.75;8.10;;;15.10;99.90;;;;;;5083838;27;20035;-80
2022/08/30 02:35:46;;;;;;;9.35;8.32;;;15.10;99.90;;;;;;5111460;27;20493;-80
2022/08/30 02:38:13;;;;;;;9.82;7.78;;;15.00;99.90;;;;;;5113551;27;20027;-79
2022/08/30 02:40:39;;;;;;;9.05;7.72;;;15.00;99.90;;;;;;5116470;27;20047;-79
2022/08/30 02:43:06;;;;;;;9.93;8.25;;;15.00;99.90;;;;;;5102378;27;20034;-79
2022/08/30 02:45:32;;;;;;;9.00;7.63;;;15.10;99.90;;;;;;5096105;27;20042;-86
2022/08/30 02:47:58;;;;;;;9.50;8.45;;;15.00;99.90;;;;;;5096850;27;20046;-86
2022/08/30 02:50:24;;;;;;;10.23;8.35;;;15.00;99.90;;;;;;5096515;27;20039;-85
2022/08/30 02:52:50;;;;;;;9.60;7.88;;;14.90;99.90;;;;;;5100992;27;20064;-85
2022/08/30 02:55:17;;;;;;;8.65;7.20;;;14.90;99.90;;;;;;5097192;27;20393;-86
2022/08/30 02:57:43;;;;;;;9.70;7.90;;;14.90;99.90;;;;;;5099923;27;20566;-86
2022/08/30 03:00:12;;;;;;;7.97;7.18;;;14.80;99.90;;;;;;5083547;27;20443;-86
2022/08/30 03:02:39;;;;;;;8.85;7.75;;;14.80;99.90;;;;;;5101090;27;20066;-87
2022/08/30 03:05:07;;;;;;;9.77;8.02;;;14.80;99.90;;;;;;5087721;27;20037;-86
2022/08/30 03:07:33;;;;;;;8.68;7.78;;;14.70;99.90;;;;;;5096375;27;20846;-86
2022/08/30 03:09:59;;;;;;;9.80;8.20;;;14.70;99.90;;;;;;5086814;27;20027;-86
2022/08/30 03:12:25;;;;;;;10.55;8.52;;;14.60;99.90;;;;;;5115805;27;20042;-79
2022/08/30 03:14:52;;;;;;;9.90;8.55;;;14.60;99.90;;;;;;5103758;27;20113;-79
2022/08/30 03:17:17;;;;;;;9.30;8.40;;;14.50;99.90;;;;;;5103629;27;20095;-79
2022/08/30 03:19:44;;;;;;;10.57;8.55;;;14.50;99.90;;;;;;5070914;27;20039;-79
2022/08/30 03:22:11;;;;;;;9.80;8.73;;;14.50;99.90;;;;;;5107947;27;20548;-80
2022/08/30 03:24:37;;;;;;;9.77;8.88;;;14.40;99.90;;;;;;5089708;27;20493;-79
2022/08/30 03:27:03;;;;;;;10.57;8.55;;;14.40;99.90;;;;;;5104141;27;20050;-79
2022/08/30 03:29:29;;;;;;;9.27;8.38;;;14.40;99.90;;;;;;5102132;27;20043;-79
2022/08/30 03:31:56;;;;;;;9.40;8.50;;;14.40;99.90;;;;;;5099930;27;20142;-86
2022/08/30 03:34:23;;;;;;;11.40;9.07;;;14.40;99.90;;;;;;5113408;27;20921;-86
2022/08/30 03:36:51;;;;;;;9.55;8.52;;;14.40;99.90;;;;;;5104766;27;20053;-86
2022/08/30 03:39:17;;;;;;;10.32;9.27;;;14.30;99.90;;;;;;5088832;27;20049;-79
2022/08/30 03:41:44;;;;;;;9.95;9.02;;;14.30;99.90;;;;;;5087542;27;20051;-79
2022/08/30 03:44:10;;;;;;;10.25;8.98;;;14.30;99.90;;;;;;5104612;27;20091;-79
2022/08/30 03:46:37;;;;;;;11.35;9.82;;;14.20;99.90;;;;;;5117679;27;20567;-79
2022/08/30 03:49:04;;;;;;;11.00;9.90;;;14.10;99.90;;;;;;5116515;27;20030;-86
2022/08/30 03:51:29;;;;;;;12.65;10.95;;;14.10;99.90;;;;;;5089346;27;20095;-86
2022/08/30 03:53:55;;;;;;;11.93;10.73;;;14.10;99.90;;;;;;5121183;27;20520;-86
2022/08/30 03:56:21;;;;;;;11.77;10.65;;;14.00;99.90;;;;;;5125139;27;20078;-87
2022/08/30 03:58:47;;;;;;;11.75;10.55;;;14.00;99.90;;;;;;5100413;27;20142;-86
2022/08/30 04:01:13;;;;;;;11.50;10.45;;;13.90;99.90;;;;;;5117538;27;20100;-86
2022/08/30 04:03:39;;;;;;;12.02;10.90;;;13.90;99.90;;;;;;5104547;27;20054;-87
2022/08/30 04:06:05;;;;;;;12.93;11.40;;;13.80;99.90;;;;;;5106492;27;20389;-87
2022/08/30 04:08:31;;;;;;;12.15;10.95;;;13.80;99.90;;;;;;5094259;27;20042;-86
2022/08/30 04:10:58;;;;;;;14.55;11.65;;;13.80;99.90;;;;;;5104591;27;20513;-87
2022/08/30 04:13:24;;;;;;;12.05;10.85;;;13.80;99.90;;;;;;5104484;27;20058;-86
2022/08/30 04:15:49;;;;;;;12.25;11.10;;;13.80;99.90;;;;;;5089406;27;20042;-87
2022/08/30 04:18:16;;;;;;;12.02;10.70;;;13.80;99.90;;;;;;5108308;27;20046;-86
2022/08/30 04:20:42;;;;;;;13.02;11.73;;;13.80;99.90;;;;;;5113864;27;20085;-86
2022/08/30 04:23:08;;;;;;;12.65;10.93;;;13.80;99.90;;;;;;5083628;27;20043;-87
2022/08/30 04:25:36;;;;;;;12.80;11.60;;;13.80;99.90;;;;;;5085391;27;20051;-86
2022/08/30 04:28:03;;;;;;;12.63;11.32;;;13.80;99.90;;;;;;5108762;27;20034;-86
2022/08/30 04:30:29;;;;;;;13.02;11.82;;;13.80;99.90;;;;;;5102390;27;20062;-86
2022/08/30 04:32:56;;;;;;;12.95;11.75;;;13.80;99.90;;;;;;5109459;27;20511;-86
2022/08/30 04:35:22;;;;;;;13.77;12.50;;;13.70;99.90;;;;;;5099971;27;20081;-86
2022/08/30 04:37:48;;;;;;;13.70;12.40;;;13.70;99.90;;;;;;5111749;27;20529;-85
2022/08/30 04:40:14;;;;;;;13.13;11.73;;;13.60;99.90;;;;;;5089425;27;20039;-86
2022/08/30 04:42:42;;;;;;;13.88;12.57;;;13.60;99.90;;;;;;5097058;28;20564;-86
2022/08/30 04:45:10;;;;;;;14.45;12.95;;;13.50;99.90;;;;;;5088185;28;20043;-87
2022/08/30 04:47:38;;;;;;;12.73;11.50;;;13.50;99.90;;;;;;5101640;27;20047;-86
2022/08/30 04:50:06;;;;;;;13.95;12.55;;;13.40;99.90;;;;;;5119660;27;20103;-86
2022/08/30 04:52:31;;;;;;;13.32;12.13;;;13.30;99.90;;;;;;5100635;28;20084;-87
2022/08/30 04:54:58;;;;;;;14.20;12.80;;;13.30;99.90;;;;;;5102309;28;20047;-86
2022/08/30 04:57:24;;;;;;;13.48;12.13;;;13.30;99.90;;;;;;5095038;28;20537;-86
2022/08/30 04:59:50;;;;;;;13.63;12.35;;;13.20;99.90;;;;;;5093671;28;20047;-86
2022/08/30 05:02:17;;;;;;;13.30;11.65;;;13.20;99.90;;;;;;5092829;28;21090;-86
2022/08/30 05:07:28;;;;;;;12.18;10.82;;;13.10;99.90;;;;;;5110953;28;20082;-86
2022/08/30 05:09:54;;;;;;;13.32;12.13;;;13.00;99.90;;;;;;5083147;28;20097;-86
2022/08/30 05:12:20;;;;;;;12.60;11.40;;;13.00;99.90;;;;;;5087264;28;20039;-86
2022/08/30 05:14:46;;;;;;;14.75;13.27;;;13.00;99.90;;;;;;5120490;27;20332;-87
2022/08/30 05:17:11;;;;;;;13.73;12.35;;;13.00;99.90;;;;;;5100884;27;20031;-86
2022/08/30 05:19:37;;;;;;;13.95;12.63;;;13.00;99.90;;;;;;5085238;28;20097;-86
2022/08/30 05:22:03;;;;;;;14.60;13.18;;;13.00;99.90;;;;;;5087616;27;20043;-87
2022/08/30 05:24:30;;;;;;;16.27;14.57;;;13.10;99.90;;;;;;5119292;27;20050;-86
2022/08/30 05:26:57;;;;;;;14.02;12.65;;;13.10;99.90;;;;;;5104536;27;20608;-86
2022/08/30 05:29:23;;;;;;;14.52;13.13;;;13.20;99.90;;;;;;5111854;27;20027;-86
2022/08/30 05:31:49;;;;;;;13.73;12.23;;;13.10;99.90;;;;;;5074681;27;20032;-85
2022/08/30 05:34:19;;;;;;;13.52;12.13;;;13.10;99.90;;;;;;5113811;27;20611;-85
2022/08/30 05:36:45;;;;;;;14.38;12.98;;;13.10;99.90;;;;;;5116916;27;20125;-86
2022/08/30 05:39:12;;;;;;;14.32;12.38;;;13.20;99.90;;;;;;5117234;27;20040;-86
2022/08/30 05:41:38;;;;;;;13.45;11.45;;;13.20;99.90;;;;;;5109512;27;20055;-86
2022/08/30 05:44:08;;;;;;;12.65;11.45;;;13.30;99.90;;;;;;5099581;27;20119;-86
2022/08/30 05:46:35;;;;;;;12.90;11.40;;;13.40;99.90;;;;;;5110318;27;20074;-86
2022/08/30 05:49:05;;;;;;;13.52;11.85;;;13.40;99.90;;;;;;5081975;27;20311;-86
2022/08/30 05:51:34;;;;;;;13.30;12.00;;;13.40;99.90;;;;;;5104081;27;20044;-86
2022/08/30 05:54:00;;;;;;;14.35;13.10;;;13.50;99.90;;;;;;5116924;27;20229;-83
2022/08/30 05:56:30;;;;;;;13.55;11.95;;;13.50;99.90;;;;;;5099244;27;20093;-82
2022/08/30 05:58:56;;;;;;;13.13;12.00;;;13.60;99.90;;;;;;5115019;27;20287;-84
2022/08/30 06:01:24;;;;;;;12.15;10.93;;;13.60;99.90;;;;;;5087739;28;20382;-85
2022/08/30 06:03:50;;;;;;;11.73;10.70;;;13.60;99.90;;;;;;5098396;28;20046;-85
2022/08/30 06:06:15;;;;;;;11.63;10.30;;;13.70;99.90;;;;;;5114894;27;20047;-85
2022/08/30 06:08:46;;;;;;;11.20;10.10;;;13.70;99.90;;;;;;5083141;27;20041;-85
2022/08/30 06:11:18;;;;;;;11.45;10.25;;;13.80;99.90;;;;;;5097547;27;20035;-85
2022/08/30 06:13:44;;;;;;;10.77;9.43;;;13.80;99.90;;;;;;5102872;27;20047;-86
2022/08/30 06:16:12;;;;;;;9.82;8.82;;;13.90;99.90;;;;;;5083324;27;20035;-85
2022/08/30 06:18:38;;;;;;;10.15;9.05;;;14.00;99.90;;;;;;5101721;27;20036;-86
2022/08/30 06:21:27;;;;;;;9.90;8.90;;;14.10;99.90;;;;;;5097274;27;20035;-84
2022/08/30 06:24:00;;;;;;;10.17;7.80;;;14.20;99.90;;;;;;5107611;27;20398;-85
2022/08/30 06:26:43;;;;;;;9.45;8.40;;;14.20;99.90;;;;;;5097811;27;20116;-87
2022/08/30 06:29:28;;;;;;;9.20;7.80;;;14.30;99.90;;;;;;5116151;27;20050;-85
2022/08/30 06:32:03;;;;;;;7.22;6.50;;;14.40;99.90;;;;;;5083467;27;20437;-84
2022/08/30 06:34:29;;;;;;;8.65;6.70;;;14.50;99.90;;;;;;5097877;27;20043;-85
2022/08/30 06:37:13;;;;;;;9.18;6.70;;;14.60;99.90;;;;;;5105513;28;20431;-84
2022/08/30 06:40:02;;;;;;;8.50;6.22;;;14.70;99.90;;;;;;5100635;28;20379;-86
2022/08/30 06:42:32;;;;;;;7.63;5.65;;;14.70;99.90;;;;;;5115059;27;20303;-81
2022/08/30 06:48:27;;;;;;;8.52;5.50;;;14.90;99.90;;;;;;5042743;28;20543;-85
2022/08/30 06:51:11;;;;;;;6.63;4.90;;;15.00;99.90;;;;;;5104097;27;20505;-83
2022/08/30 06:53:56;;;;;;;7.65;5.63;;;15.00;99.90;;;;;;5125022;27;20091;-85
2022/08/30 07:00:33;;;;;;;8.35;4.40;;;15.20;99.90;;;;;;5117748;27;20161;-85
2022/08/30 07:03:18;;;;;;;5.50;4.13;;;15.30;99.90;;;;;;5071987;27;20042;-83
2022/08/30 07:06:31;;;;;;;7.10;3.95;;;15.50;99.90;;;;;;5070328;28;20059;-84
2022/08/30 07:09:54;;;;;;;5.25;3.97;;;15.50;99.90;;;;;;5019862;28;20493;-84
2022/08/30 07:20:56;;;;;;;6.55;3.10;;;16.20;99.90;;;;;;4873707;29;20053;-87
2022/08/30 07:23:50;;;;;;;5.40;2.72;;;16.40;99.90;;;;;;4855982;29;20108;-85
2022/08/30 07:26:47;;;;;;;4.00;2.67;;;16.50;99.90;;;;;;4842731;29;20057;-85
2022/08/30 07:29:54;;;;;;;4.30;2.28;;;16.60;99.90;;;;;;4838962;29;20049;-82
2022/08/30 07:32:34;;;;;;;3.55;1.95;;;16.80;99.90;;;;;;4842335;29;20088;-81
2022/08/30 07:35:24;;;;;;;5.20;1.80;;;17.00;99.90;;;;;;4819255;29;20144;-84
2022/08/30 07:37:50;;;;;;;6.03;1.92;;;17.10;99.90;;;;;;4905564;28;20047;-88
2022/08/30 07:40:42;;;;;;;8.35;2.30;;;17.20;99.90;;;;;;4926842;28;20481;-85
2022/08/30 07:43:33;;;;;;;4.13;1.50;;;17.40;99.90;;;;;;4976783;28;20056;-83
2022/08/30 07:46:04;;;;;;;4.18;1.52;;;17.50;99.90;;;;;;5047696;28;20177;-84
2022/08/30 07:48:31;;;;;;;6.20;1.98;;;17.60;99.90;;;;;;5054449;28;20062;-80
2022/08/30 07:51:14;;;;;;;3.40;1.35;;;17.70;99.90;;;;;;5063163;28;20109;-84
2022/08/30 07:53:40;;;;;;;3.30;1.55;;;17.80;99.90;;;;;;5061194;28;20032;-90
2022/08/30 07:56:06;;;;;;;2.70;1.48;;;17.90;99.90;;;;;;5076270;27;20103;-81
2022/08/30 07:58:33;;;;;;;5.25;1.50;;;17.90;99.90;;;;;;5100567;27;20030;-85
2022/08/30 08:01:00;;;;;;;3.28;1.58;;;18.00;99.90;;;;;;5126945;27;20035;-79
2022/08/30 08:03:29;;;;;;;4.68;1.88;;;18.20;99.90;;;;;;5117639;27;20078;-84
2022/08/30 08:06:06;;;;;;;3.03;1.40;;;18.30;99.90;;;;;;5102924;27;20046;-80
2022/08/30 08:08:33;;;;;;;3.08;1.58;;;18.40;99.90;;;;;;5106534;27;20160;-87
2022/08/30 08:11:16;;;;;;;4.45;1.67;;;18.40;99.90;;;;;;5101871;27;20085;-83
2022/08/30 08:13:52;;;;;;;2.50;1.33;;;18.50;99.90;;;;;;5106771;27;20070;-87
2022/08/30 08:16:28;;;;;;;3.53;1.23;;;18.60;99.90;;;;;;5104137;27;20505;-81
2022/08/30 08:19:16;;;;;;;3.55;1.42;;;18.60;99.90;;;;;;5106833;27;20046;-83
2022/08/30 08:21:42;;;;;;;3.63;1.30;;;18.80;99.90;;;;;;5111473;27;20077;-86
2022/08/30 08:24:08;;;;;;;3.33;1.10;;;18.90;99.90;;;;;;5087468;27;20076;-77
2022/08/30 08:26:38;;;;;;;4.75;1.50;;;19.00;99.90;;;;;;5084113;27;20043;-79
2022/08/30 08:29:10;;;;;;;4.03;1.70;;;19.00;99.90;;;;;;5100492;27;20038;-83
2022/08/30 08:31:40;;;;;;;4.65;1.30;;;19.10;99.90;;;;;;5099892;27;20053;-87
2022/08/30 08:34:13;;;;;;;;;;;19.10;99.90;;;;;;5109751;27;21194;-82
2022/08/30 08:36:41;;;;;;;3.80;1.50;;;19.20;99.90;;;;;;5101166;27;20327;-84
2022/08/30 08:39:18;;;;;;;3.28;1.30;;;19.30;99.90;;;;;;5091792;27;20497;-85
2022/08/30 08:42:26;;;;;;;3.85;1.27;;;19.30;99.90;;;;;;5104397;27;20043;-84
2022/08/30 08:45:15;;;;;;;2.83;1.30;;;19.50;99.90;;;;;;5062353;28;20041;-87
2022/08/30 08:48:10;;;;;;;4.00;1.23;;;19.50;98.40;;;;;;5062304;28;20056;-86
2022/08/30 08:50:36;;;;;;;4.22;1.33;;;19.50;96.70;;;;;;5093832;27;20504;-88
2022/08/30 08:53:38;;;;;;;2.40;1.23;;;19.70;98.10;;;;;;5092677;27;20041;-87
2022/08/30 08:56:13;;;;;;;2.92;1.02;;;19.80;96.10;;;;;;5099806;27;20043;-80
2022/08/30 08:58:49;;;;;;;1.83;1.00;;;19.80;95.60;;;;;;5098989;27;20091;-82
2022/08/30 09:01:23;;;;;;;3.10;1.27;;;19.80;96.30;;;;;;5104197;27;20501;-88
2022/08/30 09:03:50;;;;;;;3.80;1.15;;;19.80;94.70;;;;;;5103457;27;20047;-84
2022/08/30 09:06:31;;;;;;;3.72;1.20;;;19.90;94.90;;;;;;5105758;27;20043;-83
2022/08/30 09:08:57;;;;;;;3.35;1.67;;;20.00;94.80;;;;;;5101785;27;20046;-78
2022/08/30 09:11:31;;;;;;;3.53;1.23;;;20.00;94.10;;;;;;5107745;27;20107;-82
2022/08/30 09:13:57;;;;;;;2.80;1.15;;;20.10;94.30;;;;;;5105693;27;20051;-82
2022/08/30 09:17:09;;;;;;;3.55;1.17;;;20.20;93.40;;;;;;5101533;27;20035;-84
2022/08/30 09:19:53;;;;;;;2.17;1.13;;;20.30;93.20;;;;;;5116948;27;20096;-86
2022/08/30 09:22:41;;;;;;;2.72;1.40;;;20.40;92.70;;;;;;5096372;27;20074;-82
2022/08/30 09:25:13;;;;;;;2.97;0.98;;;20.40;91.60;;;;;;5120382;27;20609;-82
2022/08/30 09:27:40;;;;;;;2.75;1.20;;;20.40;92.70;;;;;;5101012;27;21395;-81
2022/08/30 09:31:12;;;;;;;2.15;1.30;;;20.60;93.20;;;;;;5098279;27;20067;-83
2022/08/30 09:37:25;;;;;;;2.08;1.00;;;20.60;89.40;;;;;;5123599;27;20609;-84
2022/08/30 09:39:54;;;;;;;2.65;1.30;;;20.60;90.20;;;;;;5102582;27;20556;-82
2022/08/30 09:42:33;;;;;;;3.78;1.15;;;20.60;90.50;;;;;;5098114;27;20036;-81
2022/08/30 09:45:13;;;;;;;2.55;1.20;;;20.50;90.60;;;;;;5102309;27;20047;-84
2022/08/30 09:47:46;;;;;;;2.13;1.30;;;20.40;90.50;;;;;;5120266;27;20082;-82
2022/08/30 09:50:25;;;;;;;1.73;1.08;;;20.40;91.00;;;;;;5119871;27;20547;-83
2022/08/30 09:53:10;;;;;;;2.15;1.00;;;20.50;91.70;;;;;;5115004;27;20070;-82
2022/08/30 09:56:04;;;;;;;4.57;1.38;;;20.70;91.90;;;;;;5100547;27;20054;-83
2022/08/30 09:58:52;;;;;;;6.63;1.05;;;20.90;89.30;;;;;;5112533;27;20047;-81
2022/08/30 10:01:18;;;;;;;3.92;1.02;;;20.90;86.90;;;;;;5120235;27;20073;-83
2022/08/30 10:04:10;;;;;;;2.58;1.20;;;20.80;89.20;;;;;;5119107;27;20046;-82
2022/08/30 10:06:51;;;;;;;4.63;1.30;;;20.90;90.20;;;;;;5100348;27;20043;-86
2022/08/30 10:09:39;;;;;;;2.80;0.90;;;20.90;88.30;;;;;;5116335;27;20113;-79
2022/08/30 10:12:48;;;;;;;2.58;1.00;;;20.70;86.60;;;;;;5105881;27;20449;-81
2022/08/30 10:15:46;;;;;;;3.78;1.00;;;20.60;89.30;;;;;;5106400;27;20046;-85
2022/08/30 10:18:53;;;;;;;5.15;1.05;;;20.90;87.80;;;;;;5105654;27;20042;-81
2022/08/30 10:21:57;;;;;;;2.58;1.00;;;21.10;87.70;;;;;;5081408;27;22140;-86
2022/08/30 10:24:48;;;;;;;2.58;1.17;;;21.20;84.10;;;;;;5126530;27;20479;-88
2022/08/30 10:27:47;;;;;;;4.03;1.10;;;21.30;86.20;;;;;;5101655;27;20054;-82
2022/08/30 10:30:17;;;;;;;1.88;0.77;;;21.10;86.20;;;;;;5117057;27;20043;-84
2022/08/30 10:33:29;;;;;;;3.20;1.00;;;21.20;86.40;;;;;;5101158;27;20706;-82
2022/08/30 10:35:58;;;;;;;2.63;0.82;;;21.40;87.30;;;;;;5051615;28;20079;-88
2022/08/30 10:38:39;;;;;;;3.67;1.00;;;21.50;86.90;;;;;;5109791;27;20617;-79
2022/08/30 10:41:27;;;;;;;3.90;1.05;;;21.60;84.40;;;;;;5117942;27;20834;-80
2022/08/30 10:44:22;;;;;;;2.10;0.95;;;21.50;82.00;;;;;;5101062;27;20039;-84
2022/08/30 10:46:54;;;;;;;2.85;1.10;;;21.50;79.30;;;;;;5106116;27;20047;-81
2022/08/30 10:49:29;;;;;;;3.97;1.08;;;21.50;80.90;;;;;;5119829;27;20035;-81
2022/08/30 10:52:31;;;;;;;2.83;1.10;;;21.60;78.30;;;;;;5097238;27;20059;-82
2022/08/30 10:55:23;;;;;;;3.30;1.00;;;21.50;67.90;;;;;;5095188;28;20792;-81
2022/08/30 10:58:05;;;;;;;2.65;1.10;;;21.50;72.50;;;;;;5110327;27;20543;-85
2022/08/30 11:00:59;;;;;;;2.25;1.05;;;21.50;74.30;;;;;;5112237;27;20043;-84
2022/08/30 11:03:43;;;;;;;2.10;0.90;;;21.60;75.80;;;;;;5099718;27;21664;-83
2022/08/30 11:06:29;;;;;;;3.05;0.93;;;21.70;76.70;;;;;;5108038;27;20031;-82
2022/08/30 11:09:23;;;;;;;4.38;1.10;;;21.90;70.70;;;;;;5086791;27;20662;-80
2022/08/30 11:12:21;;;;;;;3.97;1.10;;;22.00;66.40;;;;;;5081979;27;20055;-86
2022/08/30 11:14:47;;;;;;;4.28;0.93;;;21.90;66.20;;;;;;5074344;27;20105;-78
2022/08/30 11:17:53;;;;;;;2.47;1.20;;;21.80;70.10;;;;;;5101328;27;20043;-83
2022/08/30 11:20:40;;;;;;;1.55;1.00;;;22.00;68.40;;;;;;5110102;27;20587;-81
2022/08/30 11:23:38;;;;;;;2.70;1.00;;;22.10;68.30;;;;;;5101985;27;20046;-87
2022/08/30 11:26:10;;;;;;;1.77;0.90;;;22.00;67.00;;;;;;5097763;27;20052;-84
2022/08/30 11:28:39;;;;;;;4.65;1.13;;;21.90;69.40;;;;;;5092992;27;20047;-85
2022/08/30 11:31:06;;;;;;;2.95;1.15;;;21.90;73.00;;;;;;5099216;28;20118;-84
2022/08/30 11:33:54;;;;;;;3.38;0.90;;;22.10;71.30;;;;;;5093707;28;20035;-88
2022/08/30 11:36:29;;;;;;;3.80;1.20;;;22.10;70.40;;;;;;5097610;27;20071;-80
2022/08/30 11:38:55;;;;;;;3.13;1.20;;;22.10;68.80;;;;;;5112065;27;20050;-85
2022/08/30 11:41:39;;;;;;;2.78;1.10;;;22.10;68.90;;;;;;5098339;28;20039;-78
2022/08/30 11:44:29;;;;;;;4.35;1.10;;;22.20;68.90;;;;;;5109776;27;20080;-82
2022/08/30 11:46:59;;;;;;;;;;;22.20;68.00;;;;;;5096965;28;20886;-80
2022/08/30 11:50:10;;;;;;;2.92;1.00;;;22.30;70.30;;;;;;5093095;27;19919;-88
2022/08/30 11:52:49;;;;;;;2.47;0.90;;;22.40;66.50;;;;;;5087060;27;20138;-88
2022/08/30 11:55:53;;;;;;;3.47;1.02;;;22.30;66.30;;;;;;5103954;27;20078;-80
2022/08/30 11:58:49;;;;;;;3.08;0.93;;;22.40;67.90;;;;;;5037812;28;20414;-81
2022/08/30 12:01:38;;;;;;;3.20;1.17;;;22.40;67.90;;;;;;5092438;28;20513;-80
2022/08/30 12:04:12;;;;;;;3.65;1.30;;;22.40;70.60;;;;;;5110654;27;20215;-81
2022/08/30 12:06:40;;;;;;;1.90;1.17;;;22.60;71.90;;;;;;5118517;27;20047;-82
2022/08/30 12:09:17;;;;;;;2.90;1.17;;;22.90;69.00;;;;;;5096274;27;20623;-83
2022/08/30 12:11:58;;;;;;;3.85;1.27;;;23.00;67.50;;;;;;5111359;27;20043;-81
2022/08/30 12:14:48;;;;;;;2.92;0.90;;;23.10;68.30;;;;;;5099695;28;20067;-83
2022/08/30 12:21:03;;;;;;;2.08;1.10;;;23.00;68.50;;;;;;5114289;27;20044;-79
2022/08/30 12:23:51;;;;;;;2.80;0.95;;;23.10;68.60;;;;;;5100076;27;20480;-82
2022/08/30 12:26:23;;;;;;;1.40;0.88;;;23.10;68.90;;;;;;5096646;28;20043;-80
2022/08/30 12:29:09;;;;;;;3.95;1.05;;;23.10;69.20;;;;;;5111318;27;20160;-81
2022/08/30 12:31:52;;;;;;;2.72;0.90;;;23.20;67.60;;;;;;5099429;27;20549;-78
2022/08/30 12:34:35;;;;;;;3.60;1.10;;;23.40;67.30;;;;;;5115441;27;20043;-80
2022/08/30 12:37:03;;;;;;;1.63;0.70;;;23.50;65.80;;;;;;5117642;27;20096;-80
2022/08/30 12:39:30;;;;;;;3.08;1.00;;;23.50;65.70;;;;;;5099380;27;20051;-80
2022/08/30 12:42:21;;;;;;;1.92;0.90;;;23.50;67.60;;;;;;5112555;27;20494;-80
2022/08/30 12:44:49;;;;;;;2.00;0.70;;;23.50;67.30;;;;;;5100623;27;20047;-81
2022/08/30 12:47:22;;;;;;;2.60;0.80;;;23.50;67.30;;;;;;5113055;27;20031;-79
2022/08/30 12:49:58;;;;;;;2.72;0.90;;;23.50;68.20;;;;;;5091591;28;20087;-81
2022/08/30 12:52:38;;;;;;;2.17;1.05;;;23.50;65.10;;;;;;5095541;28;20078;-79
2022/08/30 12:55:29;;;;;;;2.05;1.00;;;23.60;66.90;;;;;;5111324;27;20081;-79
2022/08/30 12:57:57;;;;;;;4.53;1.00;;;23.60;64.80;;;;;;5083145;28;20072;-81
2022/08/30 13:00:33;;;;;;;1.58;0.90;;;23.60;64.80;;;;;;5114446;28;20114;-82
2022/08/30 13:03:37;;;;;;;2.00;0.83;;;23.70;67.00;;;;;;5107184;28;20043;-81
2022/08/30 13:06:06;;;;;;;3.22;1.00;;;23.70;66.20;;;;;;5097020;28;20054;-83
2022/08/30 13:08:38;;;;;;;1.73;0.90;;;23.70;67.20;;;;;;5094954;28;20039;-79
2022/08/30 13:11:10;;;;;;;2.28;0.80;;;23.80;65.90;;;;;;5119626;27;20051;-86
2022/08/30 13:13:53;;;;;;;1.98;0.70;;;23.80;62.70;;;;;;5080279;28;20051;-82
2022/08/30 13:16:26;;;;;;;5.25;0.95;;;23.70;64.20;;;;;;5117330;27;20028;-81
2022/08/30 13:19:30;;;;;;;3.75;1.02;;;23.70;65.80;;;;;;5112685;28;20043;-81
2022/08/30 13:21:57;;;;;;;1.05;0.70;;;23.80;65.60;;;;;;5086439;28;20206;-85
2022/08/30 13:24:24;;;;;;;3.17;1.27;;;23.90;66.20;;;;;;5132473;27;20443;-86
2022/08/30 13:26:50;;;;;;;2.70;1.05;;;24.00;65.70;;;;;;5108846;28;20485;-83
2022/08/30 13:29:19;;;;;;;2.53;0.90;;;24.10;64.30;;;;;;5078464;28;20052;-84
2022/08/30 13:31:45;;;;;;;2.28;0.98;;;24.00;62.80;;;;;;5105538;28;20042;-82
2022/08/30 13:34:12;;;;;;;1.70;0.80;;;23.60;63.30;;;;;;5084597;28;20040;-81
2022/08/30 13:36:55;;;;;;;2.78;0.90;;;23.30;65.20;;;;;;5111127;27;20050;-81
2022/08/30 13:39:26;;;;;;;2.22;1.23;;;23.20;65.10;;;;;;5100013;27;20047;-80
2022/08/30 13:41:53;;;;;;;4.05;1.00;;;23.10;66.30;;;;;;5100697;27;20133;-79
2022/08/30 13:44:19;;;;;;;1.33;0.60;;;23.30;66.60;;;;;;5102707;27;20079;-82
2022/08/30 13:46:49;;;;;;;1.38;0.75;;;23.30;65.80;;;;;;5116684;27;20041;-80